Time;durP1;ratioP1;P1;durP2;ratioP2;P2;SDS_P1;SDS_P2;PMS_P1;PMS_P2;Temp;Humidity;BMP_temperature;BMP_pressure;BME280_temperature;BME280_humidity;BME280_pressure;Samples;Min_cycle;Max_cycle;Signal;HPM_P1;HPM_P2
2021/09/24 00:01:46;;;;;;;7.15;4.95;;;;;;;14.24;67.50;96363.31;1758187;80;26435;-86
2021/09/24 00:04:13;;;;;;;11.53;5.20;;;;;;;14.27;67.40;96357.87;1757770;79;27541;-84
2021/09/24 00:06:41;;;;;;;8.13;5.10;;;;;;;14.28;67.38;96348.66;1740423;82;25866;-85
2021/09/24 00:09:09;;;;;;;6.90;4.33;;;;;;;14.30;67.28;96343.80;1752119;81;26334;-86
2021/09/24 00:11:38;;;;;;;8.00;4.92;;;;;;;14.31;67.15;96349.50;1740999;81;26443;-86
2021/09/24 00:14:05;;;;;;;7.28;4.95;;;;;;;14.33;66.99;96335.14;1724765;82;25880;-89
2021/09/24 00:16:32;;;;;;;10.35;4.80;;;;;;;14.35;66.86;96326.20;1730025;82;27577;-88
2021/09/24 00:18:59;;;;;;;10.80;4.33;;;;;;;14.37;66.76;96338.41;1740247;82;25774;-90
2021/09/24 00:21:26;;;;;;;6.40;4.92;;;;;;;14.38;66.72;96337.87;1737358;80;26085;-90
2021/09/24 00:23:52;;;;;;;6.75;4.78;;;;;;;14.39;66.62;96335.44;1740386;82;26118;-87
2021/09/24 00:26:19;;;;;;;5.75;4.62;;;;;;;14.40;66.61;96341.18;1740374;81;25802;-90
2021/09/24 00:28:45;;;;;;;5.33;3.92;;;;;;;14.41;66.58;96340.92;1740367;82;28442;-86
2021/09/24 00:31:12;;;;;;;7.58;4.53;;;;;;;14.42;66.62;96352.60;1740239;81;25646;-90
2021/09/24 00:33:39;;;;;;;5.03;4.30;;;;;;;14.43;66.55;96361.56;1740424;81;25725;-92
2021/09/24 00:36:06;;;;;;;8.55;4.90;;;;;;;14.43;66.48;96347.98;1740366;82;26135;-92
2021/09/24 00:38:37;;;;;;;6.78;4.28;;;;;;;14.42;66.44;96340.38;1740370;81;25562;-87
2021/09/24 00:41:01;;;;;;;11.25;4.67;;;;;;;14.43;66.39;96331.16;1739923;82;27324;-93
2021/09/24 00:43:28;;;;;;;6.70;4.62;;;;;;;14.44;66.35;96330.62;1740284;82;25853;-90
2021/09/24 00:45:54;;;;;;;7.67;4.50;;;;;;;14.44;66.35;96334.16;1740488;82;26353;-86
2021/09/24 00:48:21;;;;;;;7.50;4.72;;;;;;;14.44;66.33;96327.91;1740353;82;26119;-88
2021/09/24 00:50:47;;;;;;;8.50;4.62;;;;;;;14.45;66.20;96330.91;1740558;82;25883;-85
2021/09/24 00:53:14;;;;;;;9.50;4.50;;;;;;;14.45;66.11;96333.08;1740435;81;27588;-90
2021/09/24 00:55:41;;;;;;;8.45;4.60;;;;;;;14.45;66.11;96331.72;1740161;81;25255;-91
2021/09/24 00:58:07;;;;;;;8.33;4.78;;;;;;;14.46;66.30;96340.16;1740312;82;25765;-91
2021/09/24 01:00:34;;;;;;;9.33;5.15;;;;;;;14.44;66.60;96333.34;1740433;82;26741;-87
2021/09/24 01:03:00;;;;;;;9.70;4.70;;;;;;;14.37;66.86;96344.38;1740430;82;25685;-88
2021/09/24 01:05:28;;;;;;;7.78;5.00;;;;;;;14.28;67.09;96335.09;1738190;82;27063;-88
2021/09/24 01:07:55;;;;;;;7.70;4.97;;;;;;;14.20;67.38;96343.72;1752752;81;25765;-87
2021/09/24 01:10:22;;;;;;;7.50;5.22;;;;;;;14.11;67.88;96356.96;1736766;82;25769;-87
2021/09/24 01:12:49;;;;;;;9.05;5.62;;;;;;;14.04;68.17;96366.66;1768198;81;26100;-86
2021/09/24 01:15:19;;;;;;;6.65;4.72;;;;;;;13.98;68.54;96362.28;1768252;81;25701;-88
2021/09/24 01:17:49;;;;;;;8.15;5.08;;;;;;;13.90;68.66;96367.33;1768102;81;27362;-87
2021/09/24 01:20:20;;;;;;;9.70;5.55;;;;;;;13.83;68.83;96370.81;1768088;81;25551;-88
2021/09/24 01:22:49;;;;;;;7.03;5.22;;;;;;;13.72;69.14;96375.31;1768155;81;25783;-89
2021/09/24 01:25:18;;;;;;;8.58;5.30;;;;;;;13.63;69.23;96374.14;1758084;79;26788;-89
2021/09/24 01:27:45;;;;;;;7.47;5.35;;;;;;;13.53;69.75;96375.37;1760729;80;26303;-88
2021/09/24 01:30:12;;;;;;;8.58;5.22;;;;;;;13.44;69.82;96362.00;1760849;79;27533;-89
2021/09/24 01:32:39;;;;;;;8.05;5.95;;;;;;;13.36;70.12;96354.33;1758527;80;25918;-90
2021/09/24 01:35:07;;;;;;;8.53;5.60;;;;;;;13.26;70.21;96361.27;1769046;79;25795;-87
2021/09/24 01:37:34;;;;;;;7.28;5.45;;;;;;;13.19;70.52;96368.76;1737601;82;26079;-87
2021/09/24 01:40:01;;;;;;;12.45;6.17;;;;;;;13.12;70.82;96364.05;1749655;79;25805;-87
2021/09/24 01:42:28;;;;;;;9.10;4.97;;;;;;;13.07;71.39;96366.69;1771507;79;28228;-87
2021/09/24 01:44:55;;;;;;;8.55;5.25;;;;;;;13.06;71.58;96359.63;1768065;81;26083;-88
2021/09/24 01:47:21;;;;;;;6.62;5.37;;;;;;;13.04;71.72;96356.91;1768128;81;25721;-88
2021/09/24 01:49:48;;;;;;;11.03;5.80;;;;;;;13.01;71.89;96359.58;1771658;79;26778;-86
2021/09/24 01:52:15;;;;;;;9.00;5.30;;;;;;;12.98;71.94;96361.43;1749632;79;26089;-87
2021/09/24 01:54:42;;;;;;;11.90;5.67;;;;;;;12.95;72.07;96351.09;1768231;81;27338;-89
2021/09/24 01:57:08;;;;;;;10.15;6.10;;;;;;;12.91;72.33;96350.80;1749583;79;25736;-87
2021/09/24 01:59:35;;;;;;;9.55;6.05;;;;;;;12.91;72.60;96349.98;1759650;80;25748;-84
2021/09/24 02:02:01;;;;;;;6.50;5.75;;;;;;;12.90;72.78;96342.92;1741731;80;25827;-87
2021/09/24 02:04:28;;;;;;;12.45;6.37;;;;;;;12.88;72.70;96343.17;1767879;81;25741;-86
2021/09/24 02:06:54;;;;;;;9.80;5.85;;;;;;;12.85;72.86;96340.13;1756968;80;27349;-86
2021/09/24 02:09:21;;;;;;;8.75;5.70;;;;;;;12.82;72.98;96346.04;1752108;81;25773;-90
2021/09/24 02:11:48;;;;;;;9.03;5.75;;;;;;;12.79;73.14;96343.86;1739712;80;25724;-90
2021/09/24 02:14:14;;;;;;;15.08;6.70;;;;;;;12.78;73.28;96339.51;1739338;81;26742;-86
2021/09/24 02:16:41;;;;;;;9.10;5.30;;;;;;;12.75;73.38;96334.59;1737625;81;25707;-88
2021/09/24 02:19:07;;;;;;;7.95;5.83;;;;;;;12.75;73.43;96344.06;1735241;82;28220;-85
2021/09/24 02:21:34;;;;;;;9.55;5.80;;;;;;;12.74;73.59;96335.66;1767173;80;25695;-86
2021/09/24 02:24:00;;;;;;;11.43;5.78;;;;;;;12.76;73.63;96347.06;1764341;81;25777;-86
2021/09/24 02:26:27;;;;;;;9.15;5.47;;;;;;;12.78;73.69;96347.10;1766660;81;26299;-87
2021/09/24 02:28:54;;;;;;;9.43;5.42;;;;;;;12.79;73.75;96345.22;1756869;80;25766;-86
2021/09/24 02:31:20;;;;;;;8.40;6.55;;;;;;;12.80;73.76;96346.86;1752612;80;28113;-85
2021/09/24 02:33:47;;;;;;;8.63;5.55;;;;;;;12.80;73.76;96353.62;1762618;81;25795;-90
2021/09/24 02:36:14;;;;;;;9.70;5.75;;;;;;;12.84;73.77;96345.27;1768322;81;25744;-85
2021/09/24 02:38:40;;;;;;;9.83;5.80;;;;;;;12.87;73.89;96344.77;1768211;80;26380;-85
2021/09/24 02:41:07;;;;;;;9.23;5.80;;;;;;;12.87;73.96;96342.87;1768052;80;26346;-89
2021/09/24 02:43:34;;;;;;;6.97;6.00;;;;;;;12.89;73.93;96346.16;1768248;81;27399;-93
2021/09/24 02:46:01;;;;;;;8.15;5.25;;;;;;;12.91;73.87;96332.38;1768058;80;25922;-85
2021/09/24 02:48:28;;;;;;;8.30;5.90;;;;;;;12.93;73.90;96334.27;1768359;80;25708;-85
2021/09/24 02:50:55;;;;;;;7.80;5.53;;;;;;;12.95;73.99;96345.67;1768281;81;26406;-87
2021/09/24 02:53:21;;;;;;;8.45;5.70;;;;;;;12.96;73.98;96341.36;1768347;81;25807;-85
2021/09/24 02:55:48;;;;;;;10.72;5.50;;;;;;;12.98;74.02;96333.81;1768358;80;27501;-86
2021/09/24 02:58:14;;;;;;;7.58;5.50;;;;;;;12.99;73.95;96338.69;1768103;80;25729;-84
2021/09/24 03:00:41;;;;;;;11.22;5.30;;;;;;;13.01;73.89;96340.62;1768459;80;25685;-86
2021/09/24 03:03:08;;;;;;;6.75;5.15;;;;;;;13.06;73.89;96333.89;1768409;80;25974;-89
2021/09/24 03:05:35;;;;;;;7.00;5.20;;;;;;;13.11;73.86;96336.67;1768164;81;25757;-86
2021/09/24 03:08:03;;;;;;;7.83;5.30;;;;;;;13.16;73.88;96335.95;1768009;81;27289;-84
2021/09/24 03:10:30;;;;;;;8.25;5.10;;;;;;;13.20;73.80;96335.70;1768267;81;25656;-88
2021/09/24 03:12:57;;;;;;;8.95;5.37;;;;;;;13.24;73.75;96340.38;1768281;80;25920;-89
2021/09/24 03:15:23;;;;;;;5.62;5.03;;;;;;;13.27;73.68;96343.95;1768308;81;26772;-83
2021/09/24 03:17:50;;;;;;;8.03;5.33;;;;;;;13.31;73.62;96338.28;1768326;80;25657;-86
2021/09/24 03:20:16;;;;;;;5.65;4.95;;;;;;;13.34;73.56;96331.00;1737086;82;27525;-87
2021/09/24 03:22:43;;;;;;;7.58;4.55;;;;;;;13.37;73.52;96336.98;1737020;81;25724;-87
2021/09/24 03:25:10;;;;;;;8.10;5.05;;;;;;;13.40;73.48;96327.00;1753071;80;25702;-84
2021/09/24 03:27:38;;;;;;;10.08;5.37;;;;;;;13.44;73.45;96344.38;1770647;80;26042;-86
2021/09/24 03:30:07;;;;;;;8.65;5.33;;;;;;;13.46;73.36;96357.14;1701726;82;25767;-87
2021/09/24 03:32:35;;;;;;;9.05;5.75;;;;;;;13.49;73.31;96367.48;1768269;81;28098;-88
2021/09/24 03:35:02;;;;;;;11.88;8.75;;;;;;;13.52;73.29;96383.25;1768226;81;25867;-87
2021/09/24 03:37:29;;;;;;;13.70;8.33;;;;;;;13.54;73.26;96389.20;1768181;81;25255;-88
2021/09/24 03:39:56;;;;;;;9.25;7.00;;;;;;;13.54;73.34;96400.05;1771465;80;26668;-94
2021/09/24 03:42:22;;;;;;;10.48;7.28;;;;;;;13.55;73.30;96400.34;1768346;81;25670;-88
2021/09/24 03:44:49;;;;;;;6.30;4.97;;;;;;;13.55;73.33;96417.42;1768303;81;27501;-89
2021/09/24 03:47:16;;;;;;;9.10;5.53;;;;;;;13.57;73.40;96409.05;1771563;79;25756;-87
2021/09/24 03:49:42;;;;;;;6.67;5.05;;;;;;;13.57;73.34;96396.84;1741815;79;25792;-86
2021/09/24 03:52:09;;;;;;;7.28;4.90;;;;;;;13.57;73.41;96398.20;1737736;81;25982;-89
2021/09/24 03:54:35;;;;;;;8.55;4.67;;;;;;;13.60;73.50;96405.83;1770222;79;25772;-85
2021/09/24 03:57:02;;;;;;;8.53;5.03;;;;;;;13.62;73.54;96408.58;1748219;80;28148;-83
2021/09/24 03:59:29;;;;;;;7.35;4.87;;;;;;;13.63;73.54;96403.44;1769333;79;25777;-90
2021/09/24 04:01:55;;;;;;;7.25;5.28;;;;;;;13.64;73.54;96394.77;1768444;81;25767;-85
2021/09/24 04:04:22;;;;;;;7.60;5.12;;;;;;;13.63;73.50;96403.44;1771425;80;26990;-85
2021/09/24 04:06:48;;;;;;;8.15;5.10;;;;;;;13.66;73.54;96411.58;1768140;81;25720;-85
2021/09/24 04:09:15;;;;;;;8.23;5.65;;;;;;;13.67;73.55;96412.68;1753501;81;28361;-88
2021/09/24 04:11:42;;;;;;;8.13;5.58;;;;;;;13.68;73.74;96413.50;1771176;79;25354;-89
2021/09/24 04:14:09;;;;;;;6.20;5.10;;;;;;;13.66;73.93;96411.58;1771360;79;25849;-94
2021/09/24 04:16:35;;;;;;;8.15;5.72;;;;;;;13.64;74.01;96430.02;1745943;79;26826;-89
2021/09/24 04:19:02;;;;;;;6.17;5.20;;;;;;;13.60;74.18;96442.44;1775946;79;25856;-92
2021/09/24 04:21:29;;;;;;;8.63;5.83;;;;;;;13.57;74.34;96438.33;1768365;80;27490;-88
2021/09/24 04:23:55;;;;;;;6.40;5.33;;;;;;;13.53;74.45;96440.44;1741445;79;25706;-90
2021/09/24 04:26:22;;;;;;;6.55;4.55;;;;;;;13.41;74.52;96441.92;1758515;79;25714;-88
2021/09/24 04:28:49;;;;;;;8.65;5.45;;;;;;;13.36;74.74;96449.19;1768518;80;25970;-90
2021/09/24 04:31:15;;;;;;;8.33;6.03;;;;;;;13.33;74.89;96458.10;1758069;79;25856;-92
2021/09/24 04:33:42;;;;;;;6.28;4.95;;;;;;;13.28;74.94;96458.59;1759125;79;28261;-89
2021/09/24 04:36:09;;;;;;;15.85;8.98;;;;;;;13.23;75.22;96462.04;1750725;80;25744;-88
2021/09/24 04:38:35;;;;;;;17.67;8.90;;;;;;;13.20;75.23;96465.78;1771317;80;25757;-94
2021/09/24 04:41:02;;;;;;;53.75;21.95;;;;;;;13.14;75.12;96459.48;1763490;80;26112;-88
2021/09/24 04:43:30;;;;;;;32.28;15.53;;;;;;;13.09;75.17;96464.79;1760583;81;25730;-87
2021/09/24 04:45:57;;;;;;;14.95;6.62;;;;;;;13.08;75.10;96475.88;1749624;79;27433;-91
2021/09/24 04:48:23;;;;;;;24.20;12.03;;;;;;;13.06;75.16;96490.20;1768084;81;25807;-90
2021/09/24 04:50:50;;;;;;;22.15;12.28;;;;;;;13.02;75.01;96493.96;1768611;79;25329;-84
2021/09/24 04:53:16;;;;;;;14.65;9.08;;;;;;;12.94;74.76;96487.59;1749429;81;26211;-91
2021/09/24 04:55:43;;;;;;;4.75;3.08;;;;;;;12.91;74.80;96511.95;1768433;80;26348;-88
2021/09/24 04:58:09;;;;;;;18.20;8.98;;;;;;;12.86;74.63;96513.75;1750039;79;28466;-90
2021/09/24 05:00:36;;;;;;;16.55;8.88;;;;;;;12.81;74.60;96509.59;1752848;79;25851;-84
2021/09/24 05:03:03;;;;;;;8.08;5.35;;;;;;;12.83;74.50;96526.42;1766244;79;25770;-89
2021/09/24 05:05:29;;;;;;;11.93;8.60;;;;;;;12.82;74.47;96524.78;1771123;80;25967;-86
2021/09/24 05:07:56;;;;;;;11.00;6.00;;;;;;;12.79;74.38;96526.66;1736373;82;25822;-90
2021/09/24 05:10:23;;;;;;;8.05;3.33;;;;;;;12.80;74.35;96539.13;1771708;80;26913;-92
2021/09/24 05:12:49;;;;;;;6.28;2.92;;;;;;;12.79;74.21;96541.55;1771725;79;25716;-85
2021/09/24 05:15:16;;;;;;;7.28;2.67;;;;;;;12.77;74.17;96543.67;1769854;80;25291;-93
2021/09/24 05:17:43;;;;;;;3.85;2.33;;;;;;;12.79;74.16;96540.19;1751272;79;26693;-91
2021/09/24 05:20:11;;;;;;;5.08;2.80;;;;;;;12.79;73.96;96541.55;1737901;81;25686;-87
2021/09/24 05:22:37;;;;;;;13.32;5.85;;;;;;;12.77;73.79;96553.16;1769392;79;28177;-87
2021/09/24 05:25:05;;;;;;;18.05;9.68;;;;;;;12.78;73.67;96550.73;1768141;81;25745;-87
2021/09/24 05:27:32;;;;;;;21.10;8.20;;;;;;;12.74;73.47;96537.39;1771580;79;25725;-84
2021/09/24 05:29:58;;;;;;;28.90;18.45;;;;;;;12.75;73.48;96534.97;1769372;79;26032;-88
2021/09/24 05:32:25;;;;;;;19.07;10.75;;;;;;;12.76;73.40;96525.78;1748558;81;25243;-88
2021/09/24 05:34:52;;;;;;;8.08;3.37;;;;;;;12.75;73.35;96534.97;1768279;81;28012;-94
2021/09/24 05:37:18;;;;;;;6.42;3.45;;;;;;;12.73;73.08;96533.03;1768166;81;25756;-89
2021/09/24 05:39:45;;;;;;;6.87;2.90;;;;;;;12.72;72.97;96543.58;1768363;80;25274;-89
2021/09/24 05:42:14;;;;;;;4.45;2.55;;;;;;;12.74;72.72;96536.03;1762650;81;26232;-86
2021/09/24 05:44:41;;;;;;;7.87;3.37;;;;;;;12.74;72.72;96542.80;1753183;81;25760;-88
2021/09/24 05:47:07;;;;;;;7.35;4.53;;;;;;;12.73;72.53;96544.69;1768255;81;27370;-87
2021/09/24 05:49:34;;;;;;;9.15;5.10;;;;;;;12.72;72.31;96540.87;1768221;81;26451;-87
2021/09/24 05:52:01;;;;;;;9.48;3.02;;;;;;;12.75;72.26;96543.09;1768310;80;25743;-93
2021/09/24 05:54:28;;;;;;;9.03;2.50;;;;;;;12.76;72.20;96552.86;1768360;80;26172;-89
2021/09/24 05:56:55;;;;;;;4.53;3.00;;;;;;;12.76;72.07;96544.73;1768293;81;25652;-92
2021/09/24 05:59:22;;;;;;;9.15;2.35;;;;;;;12.78;71.99;96527.72;1768477;81;27192;-93
2021/09/24 06:01:49;;;;;;;6.45;2.17;;;;;;;12.86;72.04;96538.13;1747559;81;25776;-88
2021/09/24 06:04:18;;;;;;;19.60;8.90;;;;;;;12.90;71.94;96538.75;1767746;81;25701;-89
2021/09/24 06:06:46;;;;;;;5.87;3.10;;;;;;;12.93;71.73;96546.89;1768222;81;26704;-85
2021/09/24 06:09:13;;;;;;;7.80;3.15;;;;;;;12.97;71.78;96548.05;1761674;81;25726;-92
2021/09/24 06:11:39;;;;;;;5.95;2.37;;;;;;;13.00;71.63;96538.08;1753841;81;28172;-91
2021/09/24 06:14:06;;;;;;;6.65;2.00;;;;;;;13.00;71.44;96542.14;1768073;81;25729;-88
2021/09/24 06:16:33;;;;;;;7.15;3.35;;;;;;;12.99;71.27;96544.56;1768484;81;25803;-88
2021/09/24 06:19:00;;;;;;;6.28;2.92;;;;;;;12.99;71.16;96547.27;1768212;81;26228;-89
2021/09/24 06:21:27;;;;;;;8.38;2.72;;;;;;;12.98;71.10;96548.34;1757484;81;26308;-92
2021/09/24 06:23:53;;;;;;;6.75;3.00;;;;;;;12.97;70.83;96548.87;1757991;81;27545;-89
2021/09/24 06:26:20;;;;;;;10.03;2.98;;;;;;;12.94;70.73;96553.42;1768306;80;25708;-87
2021/09/24 06:28:46;;;;;;;8.63;3.62;;;;;;;12.92;70.41;96573.72;1769145;80;25827;-89
2021/09/24 06:31:13;;;;;;;11.33;3.80;;;;;;;12.88;70.19;96575.27;1735598;81;26052;-88
2021/09/24 06:33:40;;;;;;;14.23;5.55;;;;;;;12.86;70.04;96557.08;1740861;80;25754;-85
2021/09/24 06:36:06;;;;;;;9.38;4.92;;;;;;;12.84;69.90;96564.09;1753898;79;27518;-87
2021/09/24 06:38:33;;;;;;;11.00;4.12;;;;;;;12.84;69.80;96564.63;1747343;79;25760;-86
2021/09/24 06:40:59;;;;;;;9.45;3.83;;;;;;;12.86;69.73;96575.52;1756716;79;25945;-88
2021/09/24 06:43:26;;;;;;;12.98;4.15;;;;;;;12.85;69.64;96587.41;1737615;81;25719;-86
2021/09/24 06:45:53;;;;;;;5.62;3.25;;;;;;;12.86;69.63;96595.00;1748530;79;25745;-89
2021/09/24 06:48:19;;;;;;;6.85;3.22;;;;;;;12.87;69.57;96606.95;1737603;79;27411;-85
2021/09/24 06:50:46;;;;;;;11.35;3.60;;;;;;;12.85;69.40;96604.19;1767959;79;25759;-87
2021/09/24 06:53:12;;;;;;;10.72;3.33;;;;;;;12.85;69.50;96599.59;1769870;79;25657;-86
2021/09/24 06:55:39;;;;;;;6.47;3.08;;;;;;;12.87;69.50;96616.96;1768770;80;26187;-90
2021/09/24 06:58:06;;;;;;;13.45;4.40;;;;;;;12.86;69.47;96608.55;1758135;79;25647;-88
2021/09/24 07:00:33;;;;;;;8.40;3.70;;;;;;;12.84;69.46;96607.96;1761320;79;27549;-88
2021/09/24 07:03:00;;;;;;;6.42;3.25;;;;;;;12.84;69.39;96612.03;1751134;80;26102;-89
2021/09/24 07:05:26;;;;;;;9.08;4.22;;;;;;;12.84;69.37;96609.31;1771337;80;25746;-88
2021/09/24 07:07:53;;;;;;;6.42;3.80;;;;;;;12.83;69.27;96604.96;1764470;80;26622;-89
2021/09/24 07:10:19;;;;;;;10.32;3.58;;;;;;;12.86;69.40;96624.80;1762082;80;25710;-87
2021/09/24 07:12:46;;;;;;;8.73;3.10;;;;;;;12.86;69.17;96614.78;1762391;80;27533;-89
2021/09/24 07:15:13;;;;;;;7.85;3.40;;;;;;;12.83;69.16;96619.86;1763157;80;25827;-92
2021/09/24 07:17:40;;;;;;;10.13;3.50;;;;;;;12.83;69.14;96618.50;1764119;80;25815;-88
2021/09/24 07:20:08;;;;;;;8.40;3.15;;;;;;;12.85;69.11;96623.15;1764336;80;26985;-83
2021/09/24 07:22:34;;;;;;;6.50;3.10;;;;;;;12.86;68.98;96631.56;1764235;80;25705;-92
2021/09/24 07:25:01;;;;;;;8.38;3.00;;;;;;;12.86;69.01;96616.67;1764333;80;27350;-92
2021/09/24 07:27:28;;;;;;;10.30;3.55;;;;;;;12.90;68.91;96621.89;1764211;80;25772;-90
2021/09/24 07:29:56;;;;;;;7.50;3.40;;;;;;;12.94;68.85;96620.32;1764214;80;25199;-85
2021/09/24 07:32:23;;;;;;;11.63;4.85;;;;;;;12.94;68.74;96626.56;1764267;80;26014;-84
2021/09/24 07:34:50;;;;;;;10.60;4.33;;;;;;;12.95;68.70;96624.67;1764394;80;25684;-86
2021/09/24 07:37:16;;;;;;;25.72;8.45;;;;;;;13.00;68.69;96632.90;1764266;80;27499;-90
2021/09/24 07:39:43;;;;;;;10.85;3.95;;;;;;;12.98;68.49;96635.03;1764272;80;25657;-89
2021/09/24 07:42:10;;;;;;;22.48;8.83;;;;;;;13.00;68.33;96643.73;1764314;80;25795;-86
2021/09/24 07:44:37;;;;;;;13.85;5.65;;;;;;;13.03;68.21;96637.84;1764322;80;25963;-93
2021/09/24 07:47:04;;;;;;;17.67;7.47;;;;;;;13.07;68.15;96636.26;1764200;80;25866;-90
2021/09/24 07:49:31;;;;;;;12.50;6.42;;;;;;;13.12;68.14;96636.35;1764188;80;28049;-92
2021/09/24 07:51:57;;;;;;;7.28;3.47;;;;;;;13.16;68.04;96659.19;1760970;80;25857;-86
2021/09/24 07:54:25;;;;;;;12.47;3.25;;;;;;;13.19;67.87;96647.87;1760901;80;25236;-84
2021/09/24 07:56:52;;;;;;;8.95;3.70;;;;;;;13.21;67.67;96656.58;1759074;80;26171;-86
2021/09/24 07:59:20;;;;;;;10.70;4.62;;;;;;;13.23;67.66;96651.74;1760272;80;26325;-89
2021/09/24 08:01:47;;;;;;;11.15;5.05;;;;;;;13.25;67.63;96660.45;1760647;80;27559;-91
2021/09/24 08:04:14;;;;;;;12.78;4.10;;;;;;;13.23;67.35;96650.92;1760138;80;25815;-92
2021/09/24 08:06:40;;;;;;;7.80;4.12;;;;;;;13.19;67.21;96663.31;1761477;80;25721;-93
2021/09/24 08:09:07;;;;;;;10.50;4.10;;;;;;;13.16;67.07;96660.55;1767795;80;26178;-87
2021/09/24 08:11:34;;;;;;;8.93;4.10;;;;;;;13.12;67.00;96660.74;1768211;80;25683;-89
2021/09/24 08:14:01;;;;;;;10.03;3.87;;;;;;;13.07;66.95;96660.64;1768144;80;28259;-84
2021/09/24 08:16:28;;;;;;;11.18;4.37;;;;;;;13.05;66.93;96650.58;1748819;81;25732;-87
2021/09/24 08:18:55;;;;;;;10.05;4.12;;;;;;;13.05;66.94;96659.23;1736873;81;26537;-84
2021/09/24 08:21:23;;;;;;;10.40;3.65;;;;;;;13.01;66.88;96664.34;1736940;81;26128;-87
2021/09/24 08:23:53;;;;;;;15.75;4.05;;;;;;;12.97;66.65;96674.02;1737056;81;25741;-93
2021/09/24 08:26:21;;;;;;;14.20;5.20;;;;;;;12.98;66.62;96671.59;1753265;80;27744;-88
2021/09/24 08:28:49;;;;;;;15.20;5.95;;;;;;;13.01;66.63;96679.25;1759949;80;26324;-87
2021/09/24 08:31:16;;;;;;;26.30;9.55;;;;;;;13.01;66.47;96687.38;1756885;80;25843;-84
2021/09/24 08:33:43;;;;;;;17.92;6.08;;;;;;;12.97;66.33;96691.63;1746910;80;26048;-84
2021/09/24 08:36:10;;;;;;;12.18;4.70;;;;;;;12.90;66.07;96685.02;1770911;80;25732;-90
2021/09/24 08:38:37;;;;;;;10.90;4.40;;;;;;;12.81;65.93;96693.75;1771046;80;28125;-90
2021/09/24 08:41:03;;;;;;;10.80;4.05;;;;;;;12.73;65.87;96686.03;1770840;80;25792;-85
2021/09/24 08:43:30;;;;;;;21.40;6.78;;;;;;;12.71;65.88;96690.86;1747083;80;25737;-89
2021/09/24 08:45:57;;;;;;;19.90;8.53;;;;;;;12.71;65.96;96698.98;1769055;80;25724;-87
2021/09/24 08:48:25;;;;;;;25.92;9.33;;;;;;;12.69;65.89;96703.28;1749370;80;25637;-86
2021/09/24 08:50:51;;;;;;;22.55;8.78;;;;;;;12.65;65.85;96691.84;1737007;80;27382;-83
2021/09/24 08:53:22;;;;;;;18.70;6.75;;;;;;;12.63;65.81;96706.44;1736862;80;25764;-83
2021/09/24 08:55:49;;;;;;;15.03;5.50;;;;;;;12.66;65.81;96703.79;1736967;80;25745;-89
2021/09/24 08:58:16;;;;;;;13.60;4.85;;;;;;;12.65;65.87;96718.39;1736916;80;26050;-88
2021/09/24 09:00:43;;;;;;;13.18;4.17;;;;;;;12.65;65.65;96710.80;1760911;80;25780;-85
2021/09/24 09:03:18;;;;;;;19.48;5.67;;;;;;;12.65;65.41;96718.92;1736956;80;27645;-85
2021/09/24 09:05:49;;;;;;;19.82;8.70;;;;;;;12.68;65.37;96725.22;1763548;80;25753;-84
2021/09/24 09:08:27;;;;;;;9.50;4.33;;;;;;;12.72;65.33;96733.13;1765376;80;25753;-85
2021/09/24 09:11:14;;;;;;;13.80;4.45;;;;;;;12.75;65.27;96734.00;1762187;80;26832;-87
2021/09/24 09:13:43;;;;;;;13.05;5.12;;;;;;;12.72;65.30;96733.13;1761763;80;25240;-89
2021/09/24 09:16:23;;;;;;;14.98;4.10;;;;;;;12.68;65.18;96734.69;1737477;81;27469;-86
2021/09/24 09:19:13;;;;;;;13.43;3.80;;;;;;;12.69;65.23;96736.30;1754780;80;25743;-84
2021/09/24 09:21:44;;;;;;;14.80;4.75;;;;;;;12.70;65.21;96742.02;1752546;80;25811;-84
2021/09/24 09:24:24;;;;;;;11.63;4.00;;;;;;;12.71;65.04;96736.89;1733358;81;26780;-90
2021/09/24 09:27:18;;;;;;;9.85;3.75;;;;;;;12.74;65.17;96736.42;1754521;80;26355;-88
2021/09/24 09:30:13;;;;;;;13.20;4.60;;;;;;;12.76;65.01;96745.13;1762168;80;27383;-86
2021/09/24 09:32:47;;;;;;;13.40;4.20;;;;;;;12.78;64.84;96731.64;1746841;80;25793;-84
2021/09/24 09:35:14;;;;;;;13.10;4.00;;;;;;;12.88;64.83;96751.33;1671032;85;25773;-89
2021/09/24 09:37:41;;;;;;;10.25;3.58;;;;;;;12.97;64.75;96734.97;1667354;84;26672;-85
2021/09/24 09:40:17;;;;;;;12.15;3.52;;;;;;;13.02;64.61;96733.72;1660604;85;25754;-85
2021/09/24 09:42:45;;;;;;;10.95;3.92;;;;;;;13.08;64.55;96740.03;1666821;85;27446;-86
2021/09/24 09:45:15;;;;;;;11.65;3.83;;;;;;;13.04;64.14;96737.55;1660186;84;25778;-88
2021/09/24 09:47:47;;;;;;;15.58;4.22;;;;;;;12.99;64.06;96736.38;1673052;84;25803;-90
2021/09/24 09:50:20;;;;;;;9.55;3.58;;;;;;;12.98;63.93;96733.91;1672807;85;27227;-85
2021/09/24 09:53:10;;;;;;;11.30;4.45;;;;;;;13.00;63.90;96746.68;1672818;84;25824;-84
2021/09/24 09:55:41;;;;;;;16.52;4.15;;;;;;;13.04;64.11;96751.88;1672916;85;28436;-84
2021/09/24 09:58:11;;;;;;;10.08;4.47;;;;;;;13.05;64.10;96752.17;1672735;84;25848;-91
2021/09/24 10:00:57;;;;;;;9.73;3.83;;;;;;;13.10;64.19;96754.17;1672958;85;25726;-89
2021/09/24 10:03:37;;;;;;;11.10;3.67;;;;;;;13.14;64.03;96762.97;1673009;85;26843;-88
2021/09/24 10:06:18;;;;;;;9.05;3.37;;;;;;;13.20;64.09;96766.58;1669506;85;25699;-85
2021/09/24 10:08:44;;;;;;;12.33;3.75;;;;;;;13.22;63.73;96766.63;1643379;85;27380;-86
2021/09/24 10:11:18;;;;;;;11.25;4.08;;;;;;;13.26;63.84;96774.58;1672576;85;25794;-84
2021/09/24 10:14:05;;;;;;;;;;;;;;;13.26;63.57;96771.86;1763630;80;25735;-84
2021/09/24 10:16:35;;;;;;;12.90;4.35;;;;;;;13.33;63.46;96777.94;1771175;80;26043;-86
2021/09/24 10:19:03;;;;;;;11.78;3.90;;;;;;;13.34;63.38;96783.66;1771391;80;26337;-90
2021/09/24 10:21:29;;;;;;;9.30;4.20;;;;;;;13.40;63.38;96780.52;1771109;80;27535;-87
2021/09/24 10:23:57;;;;;;;12.80;4.47;;;;;;;13.42;63.14;96778.89;1771103;80;25864;-86
2021/09/24 10:26:35;;;;;;;9.65;3.90;;;;;;;13.46;63.10;96794.97;1771302;80;25770;-88
2021/09/24 10:29:16;;;;;;;9.68;3.55;;;;;;;13.50;62.81;96790.71;1771006;80;26744;-83
2021/09/24 10:31:48;;;;;;;6.72;3.35;;;;;;;13.45;62.48;96786.54;1771239;80;25725;-84
2021/09/24 10:34:21;;;;;;;12.55;3.75;;;;;;;13.47;62.38;96795.26;1747161;81;27383;-90
2021/09/24 10:36:55;;;;;;;8.35;3.77;;;;;;;13.54;62.61;96802.69;1740598;79;25906;-87
2021/09/24 10:39:35;;;;;;;11.95;4.00;;;;;;;13.62;62.72;96809.09;1750370;81;25749;-86
2021/09/24 10:42:21;;;;;;;10.40;4.00;;;;;;;13.68;62.76;96813.52;1768399;80;26387;-90
2021/09/24 10:45:02;;;;;;;12.20;4.33;;;;;;;13.80;63.05;96810.20;1768270;81;25700;-90
2021/09/24 10:47:50;;;;;;;11.38;3.70;;;;;;;13.90;62.91;96811.72;1768158;80;27450;-88
2021/09/24 10:50:37;;;;;;;8.13;3.77;;;;;;;13.96;62.87;96818.89;1767600;81;26409;-84
2021/09/24 10:53:19;;;;;;;8.60;3.58;;;;;;;14.07;62.75;96800.87;1751408;80;26450;-89
2021/09/24 10:56:00;;;;;;;31.07;13.68;;;;;;;14.20;62.70;96816.81;1767740;80;28426;-88
2021/09/24 10:58:40;;;;;;;28.65;12.68;;;;;;;14.20;62.38;96818.70;1768304;80;26349;-92
2021/09/24 11:01:15;;;;;;;16.87;6.78;;;;;;;14.19;62.46;96821.13;1767122;81;27482;-84
2021/09/24 11:04:00;;;;;;;19.62;7.90;;;;;;;14.10;61.90;96815.84;1767794;81;25839;-85
2021/09/24 11:06:44;;;;;;;11.48;4.42;;;;;;;14.05;61.99;96813.33;1768269;81;25817;-85
2021/09/24 11:09:14;;;;;;;12.70;5.37;;;;;;;14.00;61.83;96814.62;1757154;80;26796;-85
2021/09/24 11:11:45;;;;;;;10.20;3.40;;;;;;;14.05;61.89;96814.68;1766595;80;25855;-87
2021/09/24 11:14:29;;;;;;;8.20;2.80;;;;;;;14.05;61.61;96810.61;1766431;80;27386;-86
2021/09/24 11:16:57;;;;;;;7.55;3.35;;;;;;;14.00;61.42;96811.91;1766642;80;25804;-91
2021/09/24 11:19:39;;;;;;;8.40;2.80;;;;;;;13.98;61.47;96813.22;1766731;80;25763;-90
2021/09/24 11:22:16;;;;;;;10.82;3.70;;;;;;;13.94;61.44;96810.16;1766911;80;25987;-83
2021/09/24 11:25:00;;;;;;;5.95;2.92;;;;;;;13.90;61.34;96815.78;1766715;80;25336;-87
2021/09/24 11:27:41;;;;;;;9.85;3.45;;;;;;;13.85;61.21;96806.23;1766737;80;27463;-83
2021/09/24 11:30:15;;;;;;;8.55;3.77;;;;;;;13.85;61.30;96806.23;1766661;80;25908;-85
2021/09/24 11:32:46;;;;;;;10.78;3.60;;;;;;;13.84;61.16;96816.78;1766862;80;25672;-82
2021/09/24 11:35:23;;;;;;;10.35;3.42;;;;;;;13.84;61.32;96807.30;1765458;80;26882;-86
2021/09/24 11:37:50;;;;;;;10.08;3.58;;;;;;;13.83;61.37;96819.20;1767049;81;25826;-92